Time;durP1;ratioP1;P1;durP2;ratioP2;P2;SDS_P1;SDS_P2;PMS_P1;PMS_P2;Temp;Humidity;BMP_temperature;BMP_pressure;BME280_temperature;BME280_humidity;BME280_pressure;Samples;Min_cycle;Max_cycle;Signal;HPM_P1;HPM_P2
2022/04/15 00:01:44;;;;;;;22.13;11.18;;;;;;;;;;5041604;28;20052;-71
2022/04/15 00:04:10;;;;;;;25.65;11.00;;;;;;;;;;5073229;28;20454;-71
2022/04/15 00:06:36;;;;;;;22.00;11.27;;;;;;;;;;5073481;28;20048;-71
2022/04/15 00:09:03;;;;;;;18.33;11.38;;;6.70;99.90;;;;;;5073197;28;20042;-71
2022/04/15 00:11:31;;;;;;;17.55;10.57;;;;;;;;;;5055119;28;20051;-71
2022/04/15 00:13:57;;;;;;;18.85;11.63;;;6.50;99.90;;;;;;5072208;28;20063;-71
2022/04/15 00:16:23;;;;;;;20.80;10.68;;;;;;;;;;5073133;28;20472;-72
2022/04/15 00:18:49;;;;;;;20.88;11.18;;;;;;;;;;5072958;28;20115;-73
2022/04/15 00:21:15;;;;;;;21.45;11.00;;;;;;;;;;5054912;28;20049;-72
2022/04/15 00:23:41;;;;;;;19.75;11.20;;;;;;;;;;5072857;28;20040;-71
2022/04/15 00:26:07;;;;;;;18.05;10.23;;;;;;;;;;5072878;28;20392;-71
2022/04/15 00:28:33;;;;;;;27.15;11.80;;;6.50;99.90;;;;;;5073057;28;20048;-71
2022/04/15 00:30:59;;;;;;;24.55;12.13;;;;;;;;;;5072522;28;20033;-70
2022/04/15 00:33:24;;;;;;;15.70;10.63;;;6.40;99.90;;;;;;5072706;28;20036;-70
2022/04/15 00:35:51;;;;;;;25.35;11.15;;;6.30;99.90;;;;;;5072894;28;20102;-70
2022/04/15 00:38:17;;;;;;;22.23;11.52;;;6.20;99.90;;;;;;5072644;28;20051;-70
2022/04/15 00:40:43;;;;;;;23.63;11.75;;;;;;;;;;5054674;28;20071;-71
2022/04/15 00:43:09;;;;;;;19.40;11.07;;;;;;;;;;5054602;28;20053;-71
2022/04/15 00:45:35;;;;;;;23.77;12.32;;;6.30;99.90;;;;;;5072541;28;20047;-70
2022/04/15 00:48:01;;;;;;;19.55;11.60;;;6.00;99.90;;;;;;5072711;28;20044;-71
2022/04/15 00:50:34;;;;;;;20.90;12.25;;;3.30;99.90;;;;;;5072167;28;20036;-71
2022/04/15 00:53:06;;;;;;;21.35;11.95;;;5.90;99.90;;;;;;5072605;28;20123;-70
2022/04/15 00:55:33;;;;;;;29.23;12.65;;;6.10;99.90;;;;;;5054320;28;20040;-71
2022/04/15 00:58:00;;;;;;;19.95;11.45;;;6.00;99.90;;;;;;5054361;28;20048;-71
2022/04/15 01:00:28;;;;;;;20.83;11.77;;;6.10;99.90;;;;;;5084475;22;20043;-62
2022/04/15 01:02:56;;;;;;;22.08;12.05;;;6.00;99.90;;;;;;5036751;28;20412;-61
2022/04/15 01:05:23;;;;;;;21.15;11.75;;;5.80;99.90;;;;;;5043486;28;20104;-61
2022/04/15 01:07:50;;;;;;;19.80;11.63;;;6.00;99.90;;;;;;5014614;28;20041;-61
2022/04/15 01:10:18;;;;;;;25.02;12.30;;;5.60;99.90;;;;;;5018435;28;20038;-61
2022/04/15 01:12:46;;;;;;;24.10;12.50;;;5.70;99.90;;;;;;5017846;28;20033;-61
2022/04/15 01:15:13;;;;;;;24.00;12.18;;;5.80;99.90;;;;;;5052494;28;20091;-61
2022/04/15 01:17:40;;;;;;;23.67;12.80;;;5.90;99.90;;;;;;5048013;28;20124;-61
2022/04/15 01:20:11;;;;;;;23.35;12.80;;;5.60;99.90;;;;;;5014841;28;20073;-61
2022/04/15 01:22:39;;;;;;;22.85;13.02;;;5.80;99.90;;;;;;5032586;28;20152;-62
2022/04/15 01:25:12;;;;;;;23.23;13.68;;;6.50;99.90;;;;;;5031695;28;20056;-61
2022/04/15 01:27:39;;;;;;;24.35;14.32;;;5.90;99.90;;;;;;5014538;28;20492;-61
2022/04/15 01:30:09;;;;;;;24.05;14.00;;;6.10;99.90;;;;;;5032213;28;20100;-61
2022/04/15 01:32:35;;;;;;;29.70;15.60;;;;;;;;;;5010462;28;20041;-61
2022/04/15 01:35:01;;;;;;;24.02;14.93;;;6.20;99.90;;;;;;5045678;28;20091;-61
2022/04/15 01:37:30;;;;;;;29.33;15.18;;;6.10;99.90;;;;;;5031408;28;20049;-61
2022/04/15 01:39:56;;;;;;;26.00;15.77;;;6.10;99.90;;;;;;5032506;28;20049;-61
2022/04/15 01:42:22;;;;;;;27.77;15.82;;;6.50;99.90;;;;;;5031724;28;20033;-61
2022/04/15 01:44:48;;;;;;;28.33;16.45;;;;;;;;;;5031818;28;20044;-60
2022/04/15 01:47:16;;;;;;;23.58;15.88;;;;;;;;;;5031431;28;20041;-60
2022/04/15 01:49:42;;;;;;;27.42;15.98;;;;;;;;;;5014614;28;20098;-60
2022/04/15 01:52:08;;;;;;;26.80;16.35;;;;;;;;;;5031609;28;20484;-60
2022/04/15 01:54:34;;;;;;;25.77;17.55;;;;;;;;;;5032302;28;20037;-60
2022/04/15 01:57:03;;;;;;;28.60;16.75;;;6.40;99.90;;;;;;5031804;28;20223;-61
2022/04/15 01:59:28;;;;;;;30.75;16.33;;;6.40;99.90;;;;;;5030776;28;20662;-61
2022/04/15 02:01:54;;;;;;;25.88;16.73;;;6.60;99.90;;;;;;5031640;28;20140;-60
2022/04/15 02:04:27;;;;;;;26.75;15.95;;;6.90;99.90;;;;;;5031173;28;20053;-61
2022/04/15 02:06:53;;;;;;;25.98;15.90;;;6.80;99.90;;;;;;5031980;28;20042;-60
2022/04/15 02:09:19;;;;;;;30.40;16.15;;;6.70;99.90;;;;;;5035739;28;20038;-61
2022/04/15 02:11:45;;;;;;;26.63;15.13;;;6.50;99.90;;;;;;5031668;28;20099;-61
2022/04/15 02:14:12;;;;;;;27.17;15.23;;;6.60;99.90;;;;;;5013341;28;20395;-60
2022/04/15 02:16:39;;;;;;;26.15;15.27;;;6.70;99.90;;;;;;5031417;28;20045;-61
2022/04/15 02:19:05;;;;;;;24.88;15.65;;;6.60;99.90;;;;;;5014401;28;20131;-60
2022/04/15 02:21:30;;;;;;;24.00;15.13;;;6.70;99.90;;;;;;5013048;28;20073;-61
2022/04/15 02:23:57;;;;;;;19.35;14.10;;;;;;;;;;5031859;28;20099;-60
2022/04/15 02:26:23;;;;;;;21.60;14.23;;;;;;;;;;5030810;28;20112;-60
2022/04/15 02:28:49;;;;;;;26.05;15.38;;;6.80;99.90;;;;;;5031165;28;20042;-61
2022/04/15 02:31:14;;;;;;;24.15;14.20;;;6.90;99.90;;;;;;5030769;28;20116;-60
2022/04/15 02:33:40;;;;;;;22.42;14.82;;;7.00;99.90;;;;;;5031507;28;20034;-60
2022/04/15 02:36:06;;;;;;;21.42;14.07;;;;;;;;;;5013462;28;20150;-61
2022/04/15 02:38:32;;;;;;;22.40;14.43;;;;;;;;;;5013837;28;20077;-61
2022/04/15 02:40:59;;;;;;;25.73;13.88;;;;;;;;;;5031223;28;20053;-61
2022/04/15 02:43:31;;;;;;;27.30;14.55;;;6.80;99.90;;;;;;5030641;28;20369;-61
2022/04/15 02:46:01;;;;;;;21.30;14.40;;;6.90;99.90;;;;;;5031306;28;20055;-61
2022/04/15 02:48:28;;;;;;;23.52;13.77;;;7.10;99.90;;;;;;5030772;28;20400;-60
2022/04/15 02:50:54;;;;;;;28.45;15.00;;;7.00;99.90;;;;;;5013283;28;20049;-60
2022/04/15 02:53:21;;;;;;;24.45;14.07;;;7.10;99.90;;;;;;5030953;28;20030;-60
2022/04/15 02:55:47;;;;;;;23.00;13.95;;;7.10;99.90;;;;;;5031185;28;20052;-60
2022/04/15 02:58:12;;;;;;;25.42;14.50;;;6.90;99.90;;;;;;5030263;28;20396;-60
2022/04/15 03:00:38;;;;;;;23.65;14.07;;;;;;;;;;5030765;28;20057;-60
2022/04/15 03:03:04;;;;;;;22.35;14.02;;;;;;;;;;5031435;28;20045;-60
2022/04/15 03:05:30;;;;;;;21.90;14.02;;;7.20;99.90;;;;;;5012957;28;20045;-61
2022/04/15 03:07:56;;;;;;;22.55;13.90;;;7.10;99.90;;;;;;5031197;28;20378;-61
2022/04/15 03:10:22;;;;;;;22.05;13.90;;;7.20;99.90;;;;;;5030478;28;20106;-61
2022/04/15 03:12:49;;;;;;;22.42;13.50;;;;;;;;;;5030714;28;20435;-61
2022/04/15 03:15:15;;;;;;;22.38;13.65;;;;;;;;;;5013005;28;20049;-61
2022/04/15 03:17:41;;;;;;;20.95;13.30;;;;;;;;;;5030928;28;20370;-60
2022/04/15 03:20:08;;;;;;;24.25;13.25;;;7.20;99.90;;;;;;5031138;28;20052;-60
2022/04/15 03:22:38;;;;;;;22.63;13.48;;;7.20;99.90;;;;;;5030926;28;20053;-60
2022/04/15 03:25:09;;;;;;;20.50;13.15;;;7.20;99.90;;;;;;5037868;28;20136;-61
2022/04/15 03:27:35;;;;;;;28.27;14.07;;;;;;;;;;5032709;28;20502;-60
2022/04/15 03:30:01;;;;;;;27.35;14.18;;;;;;;;;;5050751;28;20053;-60
2022/04/15 03:32:28;;;;;;;21.20;13.25;;;;;;;;;;5050394;28;20048;-61
2022/04/15 03:34:56;;;;;;;27.30;13.00;;;7.30;99.90;;;;;;5033149;28;20057;-60
2022/04/15 03:37:22;;;;;;;24.58;13.27;;;;;;;;;;5050093;28;20419;-60
2022/04/15 03:39:48;;;;;;;24.17;13.85;;;7.30;99.90;;;;;;5050892;28;20069;-60
2022/04/15 03:42:14;;;;;;;22.30;14.38;;;6.80;99.90;;;;;;5049675;28;20531;-61
2022/04/15 03:44:40;;;;;;;25.20;13.55;;;;;;;;;;5050665;28;20202;-60
2022/04/15 03:47:06;;;;;;;22.50;13.45;;;7.50;99.90;;;;;;5050677;28;20392;-60
2022/04/15 03:49:33;;;;;;;22.40;13.40;;;8.60;99.90;;;;;;5053481;28;20033;-61
2022/04/15 04:08:14;;;;;;;21.48;13.35;;;7.50;99.90;;;;;;5010184;24;20049;-60
2022/04/15 04:10:39;;;;;;;21.63;13.13;;;7.20;99.90;;;;;;4799258;30;20055;-59
2022/04/15 04:13:05;;;;;;;16.65;12.25;;;7.30;99.90;;;;;;4798434;30;20221;-60
2022/04/15 04:15:31;;;;;;;21.45;12.38;;;7.50;99.90;;;;;;4799032;30;20063;-59
2022/04/15 04:17:58;;;;;;;22.23;13.50;;;7.50;99.90;;;;;;4799394;30;20332;-60
2022/04/15 04:20:24;;;;;;;22.55;13.30;;;7.60;99.90;;;;;;4799211;30;20039;-59
2022/04/15 04:22:50;;;;;;;24.60;13.25;;;7.30;99.90;;;;;;4783390;30;20055;-59
2022/04/15 04:25:15;;;;;;;24.00;13.20;;;7.20;99.90;;;;;;4798584;30;20043;-61
2022/04/15 04:27:42;;;;;;;23.35;13.15;;;7.80;99.90;;;;;;4799049;30;20043;-60
2022/04/15 04:30:10;;;;;;;23.70;12.90;;;7.60;99.90;;;;;;4798862;30;20273;-60
2022/04/15 04:32:36;;;;;;;25.58;12.70;;;;;;;;;;4788879;30;20078;-60
2022/04/15 04:35:03;;;;;;;21.75;12.45;;;7.20;99.90;;;;;;4799239;29;20255;-60
2022/04/15 04:37:29;;;;;;;18.63;12.90;;;7.30;99.90;;;;;;4798642;29;20053;-59
2022/04/15 04:39:54;;;;;;;18.92;12.00;;;7.70;99.90;;;;;;4798707;30;20046;-59
2022/04/15 04:42:21;;;;;;;26.52;13.32;;;7.60;99.90;;;;;;4798501;30;20039;-60
2022/04/15 04:44:48;;;;;;;21.00;12.40;;;7.50;99.90;;;;;;4798893;29;20106;-59
2022/04/15 04:47:14;;;;;;;18.55;11.48;;;;;;;;;;4798195;30;20246;-59
2022/04/15 04:49:40;;;;;;;20.38;11.57;;;7.70;99.90;;;;;;4799068;29;20302;-61
2022/04/15 04:52:06;;;;;;;22.05;12.45;;;7.40;99.90;;;;;;4798902;29;20066;-59
2022/04/15 04:54:33;;;;;;;19.27;11.88;;;7.90;99.90;;;;;;4798595;30;20049;-59
2022/04/15 04:57:00;;;;;;;17.00;11.55;;;8.40;99.90;;;;;;4797597;30;20051;-59
2022/04/15 04:59:26;;;;;;;22.42;12.32;;;7.80;99.90;;;;;;4798083;29;20066;-60
2022/04/15 05:01:52;;;;;;;22.23;12.10;;;7.40;99.90;;;;;;4797373;30;20043;-59
2022/04/15 05:04:18;;;;;;;21.60;12.13;;;7.60;99.90;;;;;;4798465;30;20095;-60
2022/04/15 05:06:44;;;;;;;21.33;12.40;;;;;;;;;;4797214;30;20287;-59
2022/04/15 05:09:09;;;;;;;21.88;12.00;;;7.80;99.90;;;;;;4798089;29;20233;-60
2022/04/15 05:11:35;;;;;;;21.20;11.93;;;7.60;99.90;;;;;;4797344;30;20054;-60
2022/04/15 05:14:01;;;;;;;19.25;11.38;;;;;;;;;;4798323;29;20059;-59
2022/04/15 05:16:27;;;;;;;18.77;12.40;;;7.40;99.90;;;;;;4797937;29;20047;-60
2022/04/15 05:18:53;;;;;;;19.80;12.13;;;;;;;;;;4798392;29;20088;-59
2022/04/15 05:21:18;;;;;;;21.20;11.77;;;7.90;99.90;;;;;;4796641;30;20051;-60
2022/04/15 05:23:45;;;;;;;20.17;12.25;;;;;;;;;;4796978;30;20058;-59
2022/04/15 05:26:12;;;;;;;18.02;12.23;;;7.80;99.90;;;;;;4797666;29;20285;-61
2022/04/15 05:28:38;;;;;;;20.73;13.05;;;;;;;;;;4797872;30;20031;-61
2022/04/15 05:31:04;;;;;;;27.77;12.43;;;7.80;99.90;;;;;;4798225;29;20259;-60
2022/04/15 05:33:30;;;;;;;18.58;12.18;;;8.50;99.90;;;;;;4797912;30;20088;-60
2022/04/15 05:35:56;;;;;;;19.55;12.77;;;8.00;99.90;;;;;;4798142;29;20093;-60
2022/04/15 05:38:22;;;;;;;21.92;12.35;;;;;;;;;;4781378;30;20114;-61
2022/04/15 05:40:48;;;;;;;17.73;12.88;;;8.10;99.90;;;;;;4798072;29;20106;-59
2022/04/15 05:43:14;;;;;;;16.23;11.75;;;;;;;;;;4797582;29;20046;-60
2022/04/15 05:45:40;;;;;;;22.20;12.80;;;;;;;;;;4798072;29;20039;-61
2022/04/15 05:48:07;;;;;;;17.65;12.32;;;;;;;;;;4796627;30;20216;-59
2022/04/15 05:50:32;;;;;;;16.95;11.63;;;7.80;99.90;;;;;;4797726;29;20056;-59
2022/04/15 05:52:58;;;;;;;15.80;11.63;;;;;;;;;;4797518;30;20249;-59
2022/04/15 05:55:24;;;;;;;15.98;11.98;;;8.40;99.90;;;;;;4797410;29;20110;-60
2022/04/15 05:57:50;;;;;;;14.23;11.18;;;7.60;99.90;;;;;;4797654;29;20046;-59
2022/04/15 06:00:16;;;;;;;14.88;10.77;;;7.60;99.90;;;;;;4797496;29;20039;-60
2022/04/15 06:02:43;;;;;;;14.65;10.90;;;;;;;;;;4797352;29;20321;-59
2022/04/15 06:05:09;;;;;;;13.48;10.23;;;;;;;;;;4797388;29;20094;-59
2022/04/15 06:07:35;;;;;;;16.67;10.70;;;;;;;;;;4795813;29;20286;-61
2022/04/15 06:10:01;;;;;;;13.95;10.43;;;7.60;99.90;;;;;;4797563;29;20050;-61
2022/04/15 06:13:22;;;;;;;12.52;9.88;;;7.70;99.90;;;;;;4795487;29;20036;-59
2022/04/15 06:15:23;;;;;;;14.02;9.30;;;8.00;99.90;;;;;;4789082;29;20344;-61
2022/04/15 06:17:50;;;;;;;11.98;8.63;;;8.00;99.90;;;;;;4786813;30;20050;-61
2022/04/15 06:20:16;;;;;;;9.80;7.95;;;8.00;99.90;;;;;;4785495;30;20097;-61
2022/04/15 06:22:43;;;;;;;9.48;7.47;;;8.00;99.90;;;;;;4779406;30;20107;-61
2022/04/15 06:25:09;;;;;;;14.07;7.97;;;8.50;99.90;;;;;;4779055;30;20067;-59
2022/04/15 06:27:35;;;;;;;10.80;7.95;;;8.10;99.90;;;;;;4779477;30;20035;-61
2022/04/15 06:30:01;;;;;;;10.65;7.90;;;;;;;;;;4779357;30;20035;-59
2022/04/15 06:32:27;;;;;;;11.50;7.78;;;8.40;99.90;;;;;;4763130;30;20293;-60
2022/04/15 06:34:53;;;;;;;12.55;7.25;;;8.20;99.90;;;;;;4779140;30;20043;-59
2022/04/15 06:37:18;;;;;;;8.85;7.05;;;8.20;99.90;;;;;;4778730;30;20043;-61
2022/04/15 06:39:50;;;;;;;9.82;7.35;;;;;;;;;;4779556;30;20040;-61
2022/04/15 06:42:25;;;;;;;10.32;7.50;;;8.20;99.90;;;;;;4779078;30;20044;-61
2022/04/15 06:44:51;;;;;;;;;;;8.20;99.90;;;;;;4779596;30;20107;-61
2022/04/15 06:47:17;;;;;;;10.10;7.30;;;8.00;99.90;;;;;;4763029;30;19964;-60
2022/04/15 06:49:43;;;;;;;11.23;7.50;;;7.70;99.90;;;;;;4779060;30;20050;-60
2022/04/15 06:52:09;;;;;;;8.88;6.95;;;;;;;;;;4778963;30;20035;-60
2022/04/15 06:54:35;;;;;;;12.82;6.90;;;8.00;99.90;;;;;;4781196;30;20345;-60
2022/04/15 06:57:01;;;;;;;8.27;6.72;;;8.20;99.90;;;;;;4786124;30;20062;-60
2022/04/15 06:59:27;;;;;;;8.45;7.35;;;8.10;99.90;;;;;;4784879;29;20359;-58
2022/04/15 07:01:55;;;;;;;10.93;7.22;;;8.40;99.90;;;;;;4771938;29;20044;-59
2022/04/15 07:04:21;;;;;;;11.90;7.07;;;8.30;99.90;;;;;;4767925;30;20220;-60
2022/04/15 07:06:48;;;;;;;11.27;7.72;;;8.20;99.90;;;;;;4784326;29;20070;-59
2022/04/15 07:09:14;;;;;;;9.48;7.35;;;;;;;;;;4794542;30;20047;-59
2022/04/15 07:11:40;;;;;;;9.82;7.20;;;8.20;99.90;;;;;;4784631;30;20102;-61
2022/04/15 07:14:05;;;;;;;8.52;7.30;;;7.90;99.90;;;;;;4784726;29;20056;-59
2022/04/15 07:16:32;;;;;;;10.05;8.05;;;8.20;99.90;;;;;;4795682;30;20221;-60
2022/04/15 07:19:02;;;;;;;13.82;9.38;;;;;;;;;;4779820;30;20092;-59
2022/04/15 07:21:28;;;;;;;11.10;8.73;;;;;;;;;;4795357;30;20111;-58
2022/04/15 07:23:54;;;;;;;10.98;8.65;;;;;;;;;;4797724;29;20051;-59
2022/04/15 07:26:20;;;;;;;11.98;8.95;;;8.00;99.90;;;;;;4799274;30;20206;-60
2022/04/15 07:28:45;;;;;;;10.10;8.85;;;8.20;99.90;;;;;;4799053;29;20054;-59
2022/04/15 07:31:11;;;;;;;12.00;9.50;;;8.20;99.90;;;;;;4798825;30;20042;-59
2022/04/15 07:33:37;;;;;;;15.27;9.48;;;8.10;99.90;;;;;;4782488;30;20232;-59
2022/04/15 07:36:28;;;;;;;12.68;9.40;;;8.20;99.90;;;;;;4799683;30;20043;-60
2022/04/15 07:38:49;;;;;;;12.15;8.88;;;;;;;;;;4798541;29;20045;-59
2022/04/15 07:41:16;;;;;;;13.43;9.75;;;8.40;99.90;;;;;;4782771;30;20047;-59
2022/04/15 07:43:42;;;;;;;13.38;9.40;;;8.30;99.90;;;;;;4782349;30;20047;-61
2022/04/15 07:46:08;;;;;;;14.38;9.90;;;;;;;;;;4798014;30;20069;-59
2022/04/15 07:48:34;;;;;;;13.80;10.30;;;8.10;99.90;;;;;;4782342;30;20047;-59
2022/04/15 07:51:00;;;;;;;13.70;10.25;;;8.60;99.90;;;;;;4783120;30;20096;-61
2022/04/15 07:53:26;;;;;;;16.85;11.15;;;;;;;;;;4797660;30;20132;-59
2022/04/15 07:55:51;;;;;;;19.80;11.50;;;8.50;99.90;;;;;;4799208;30;20043;-59
2022/04/15 07:58:18;;;;;;;16.17;11.23;;;8.40;99.90;;;;;;4798580;30;20328;-59
2022/04/15 08:00:44;;;;;;;16.42;11.32;;;8.20;99.90;;;;;;4782729;30;20217;-59
2022/04/15 08:03:10;;;;;;;16.88;11.75;;;8.60;99.90;;;;;;4798609;30;20046;-59
2022/04/15 08:05:36;;;;;;;19.25;11.73;;;;;;;;;;4798624;30;20055;-59
2022/04/15 08:08:01;;;;;;;17.92;12.57;;;9.10;99.90;;;;;;4798342;30;20053;-61
2022/04/15 08:10:27;;;;;;;20.20;12.30;;;8.50;99.90;;;;;;4781913;30;20290;-59
2022/04/15 08:12:54;;;;;;;17.10;11.90;;;8.40;99.90;;;;;;4798700;30;20039;-59
2022/04/15 08:15:20;;;;;;;21.55;12.35;;;8.90;99.90;;;;;;4788696;30;20283;-59
2022/04/15 08:17:46;;;;;;;18.92;12.95;;;8.60;99.90;;;;;;4798551;29;20090;-59
2022/04/15 08:20:13;;;;;;;20.38;12.93;;;9.30;99.90;;;;;;4798179;29;20329;-59
2022/04/15 08:22:39;;;;;;;16.88;12.20;;;8.50;99.90;;;;;;4794555;30;20047;-59
2022/04/15 08:25:05;;;;;;;19.63;12.35;;;8.90;99.90;;;;;;4758061;30;20079;-61
2022/04/15 08:27:31;;;;;;;18.55;12.43;;;8.70;99.90;;;;;;4782072;30;20035;-59
2022/04/15 08:29:57;;;;;;;22.70;13.48;;;8.90;99.90;;;;;;4796634;29;20224;-59
2022/04/15 08:32:23;;;;;;;19.98;13.10;;;;;;;;;;4781391;30;20035;-59
2022/04/15 08:34:49;;;;;;;23.17;13.32;;;8.90;99.90;;;;;;4789417;29;20067;-60
2022/04/15 08:37:15;;;;;;;18.00;12.25;;;;;;;;;;4764208;30;20261;-62
2022/04/15 08:39:41;;;;;;;22.67;12.70;;;;;;;;;;4788428;29;20031;-59
2022/04/15 08:42:08;;;;;;;20.48;12.90;;;8.60;99.90;;;;;;4793128;30;20254;-60
2022/04/15 08:44:34;;;;;;;19.63;13.20;;;8.90;99.90;;;;;;4794684;30;20220;-59
2022/04/15 08:47:02;;;;;;;20.48;13.35;;;8.80;99.90;;;;;;4781670;30;20070;-61
2022/04/15 08:49:29;;;;;;;18.17;13.10;;;8.70;99.90;;;;;;4781641;30;20047;-58
2022/04/15 08:51:55;;;;;;;22.02;13.98;;;8.90;99.90;;;;;;4797548;29;20228;-60
2022/04/15 08:54:21;;;;;;;20.60;13.80;;;9.20;99.90;;;;;;4781527;30;20255;-60
2022/04/15 08:56:47;;;;;;;23.95;13.82;;;8.80;99.90;;;;;;4797449;29;20051;-60
2022/04/15 08:59:14;;;;;;;26.85;13.85;;;9.20;99.90;;;;;;4797706;30;20043;-61
2022/04/15 09:01:40;;;;;;;19.75;13.25;;;9.10;99.90;;;;;;4796865;29;20056;-59
2022/04/15 09:04:06;;;;;;;20.92;13.30;;;9.30;99.90;;;;;;4797722;29;20373;-60
2022/04/15 09:06:32;;;;;;;18.10;12.73;;;;;;;;;;4796783;29;20082;-59
2022/04/15 09:08:59;;;;;;;21.13;12.95;;;9.20;99.90;;;;;;4783967;30;20060;-61
2022/04/15 09:11:34;;;;;;;21.92;13.38;;;9.20;99.90;;;;;;4779099;30;20066;-61
2022/04/15 09:14:10;;;;;;;23.40;13.25;;;9.10;99.90;;;;;;4779773;30;20114;-60
2022/04/15 09:16:37;;;;;;;23.63;13.95;;;9.20;99.90;;;;;;4779494;30;20055;-60
2022/04/15 09:19:06;;;;;;;26.40;12.98;;;9.20;99.90;;;;;;4763885;30;20047;-60
2022/04/15 09:21:32;;;;;;;22.27;13.40;;;9.50;99.90;;;;;;4778726;30;20105;-59
2022/04/15 09:23:58;;;;;;;26.13;12.98;;;9.50;99.90;;;;;;4790452;29;20039;-61
2022/04/15 09:26:25;;;;;;;28.50;12.60;;;9.30;99.90;;;;;;4796434;29;20063;-59
2022/04/15 09:28:53;;;;;;;24.88;12.75;;;9.40;99.90;;;;;;4796712;30;20074;-61
2022/04/15 09:31:23;;;;;;;22.80;12.13;;;9.50;99.90;;;;;;4795458;29;20102;-60
2022/04/15 09:34:07;;;;;;;28.35;12.13;;;9.40;99.90;;;;;;4765022;30;20040;-60
2022/04/15 09:36:35;;;;;;;23.00;12.40;;;9.60;99.90;;;;;;4765690;29;20043;-60
2022/04/15 09:39:14;;;;;;;21.15;11.80;;;9.70;99.90;;;;;;4797240;30;20046;-60
2022/04/15 09:41:54;;;;;;;17.70;10.75;;;9.70;99.90;;;;;;4796775;29;20046;-59
2022/04/15 09:44:21;;;;;;;21.75;10.38;;;9.80;99.90;;;;;;4796511;30;20092;-60
2022/04/15 09:46:48;;;;;;;19.08;9.57;;;;;;;;;;4795916;29;20456;-59
2022/04/15 09:49:14;;;;;;;13.77;8.35;;;9.70;99.90;;;;;;4795494;30;20316;-60
2022/04/15 09:51:44;;;;;;;14.15;8.32;;;9.90;99.90;;;;;;4790713;30;20037;-60
2022/04/15 09:54:24;;;;;;;12.32;8.52;;;10.00;99.90;;;;;;4796113;30;20043;-61
2022/04/15 09:56:52;;;;;;;18.05;9.35;;;10.00;99.90;;;;;;4796660;30;20197;-60
2022/04/15 09:59:21;;;;;;;10.43;7.68;;;10.20;99.90;;;;;;4795967;30;20070;-61
2022/04/15 10:01:53;;;;;;;9.88;7.03;;;10.20;99.90;;;;;;4796554;30;20123;-61
2022/04/15 10:04:20;;;;;;;10.68;7.72;;;10.40;99.90;;;;;;4780289;30;20109;-61
2022/04/15 10:06:46;;;;;;;12.80;7.68;;;10.70;99.90;;;;;;4796030;30;20047;-60
2022/04/15 10:09:13;;;;;;;13.43;7.75;;;10.30;99.90;;;;;;4796447;30;20043;-57
2022/04/15 10:11:44;;;;;;;13.82;7.50;;;10.60;99.90;;;;;;4780351;30;20051;-57
2022/04/15 10:14:11;;;;;;;9.55;7.32;;;10.40;99.90;;;;;;4789687;29;20055;-57
2022/04/15 10:16:42;;;;;;;13.48;7.50;;;10.70;99.90;;;;;;4805445;29;20027;-57
2022/04/15 10:19:09;;;;;;;10.73;7.30;;;10.70;99.90;;;;;;4812758;29;20071;-57
2022/04/15 10:21:43;;;;;;;14.77;7.82;;;10.60;99.90;;;;;;4812430;29;20197;-56
2022/04/15 10:24:10;;;;;;;12.68;7.10;;;10.80;99.90;;;;;;4812822;29;20117;-56
2022/04/15 10:26:40;;;;;;;13.50;7.50;;;10.80;99.90;;;;;;4813851;29;20049;-57
2022/04/15 10:29:09;;;;;;;12.98;7.82;;;11.30;99.90;;;;;;4814522;29;20238;-57
2022/04/15 10:31:43;;;;;;;11.93;7.30;;;10.90;99.90;;;;;;4814136;29;20232;-57
2022/04/15 10:34:11;;;;;;;14.30;7.68;;;10.90;99.90;;;;;;4813762;29;20053;-57
2022/04/15 10:36:38;;;;;;;11.35;7.60;;;11.00;99.90;;;;;;4782799;29;20339;-56
2022/04/15 10:39:07;;;;;;;11.60;6.97;;;11.20;99.90;;;;;;4814304;29;20057;-57
2022/04/15 10:41:41;;;;;;;13.35;7.63;;;10.80;99.90;;;;;;4810191;29;20086;-57
2022/04/15 10:44:11;;;;;;;13.68;7.50;;;10.90;99.90;;;;;;4789170;29;20055;-57
2022/04/15 10:46:37;;;;;;;12.77;6.72;;;11.10;99.90;;;;;;4792405;29;20330;-57
2022/04/15 10:49:23;;;;;;;11.55;6.75;;;11.00;99.90;;;;;;4792499;29;20059;-57
2022/04/15 10:51:57;;;;;;;11.20;8.27;;;11.30;99.90;;;;;;4791883;29;20039;-57
2022/04/15 10:54:35;;;;;;;12.98;7.45;;;11.40;99.90;;;;;;4794881;29;20043;-57
2022/04/15 10:57:14;;;;;;;14.93;8.10;;;11.80;99.90;;;;;;4796359;29;20049;-57
2022/04/15 11:02:46;;;;;;;12.57;7.03;;;11.60;99.90;;;;;;4798631;30;20100;-57
2022/04/15 11:05:14;;;;;;;10.10;6.40;;;11.60;99.90;;;;;;4799405;29;20074;-58
2022/04/15 11:07:49;;;;;;;11.95;6.88;;;11.50;99.90;;;;;;4798792;29;20059;-57
2022/04/15 11:10:17;;;;;;;11.25;6.75;;;11.40;99.90;;;;;;4799106;29;20047;-57
2022/04/15 11:12:44;;;;;;;11.30;6.65;;;11.70;99.90;;;;;;4797941;30;20051;-57
2022/04/15 11:15:10;;;;;;;11.38;6.57;;;11.40;99.90;;;;;;4791047;30;20114;-57
2022/04/15 11:17:44;;;;;;;13.52;6.55;;;11.60;99.90;;;;;;4798939;30;20047;-57
2022/04/15 11:20:11;;;;;;;12.75;6.88;;;;;;;;;;4798918;29;20047;-57
2022/04/15 11:22:42;;;;;;;12.68;7.00;;;11.30;99.90;;;;;;4798768;30;20344;-57
2022/04/15 11:25:09;;;;;;;9.90;6.53;;;11.60;99.90;;;;;;4798598;29;20086;-57
2022/04/15 11:27:41;;;;;;;9.70;6.63;;;11.70;99.90;;;;;;4799122;30;20102;-57
2022/04/15 11:30:17;;;;;;;13.45;7.25;;;11.50;99.90;;;;;;4798959;29;20043;-57
2022/04/15 11:32:51;;;;;;;13.27;7.35;;;11.40;99.90;;;;;;4768044;30;20050;-57
2022/04/15 11:35:28;;;;;;;20.40;7.05;;;11.30;99.90;;;;;;4798656;29;20043;-57
2022/04/15 11:38:01;;;;;;;12.65;6.47;;;11.60;99.90;;;;;;4799105;30;20100;-57
2022/04/15 11:40:30;;;;;;;10.23;6.82;;;11.20;99.90;;;;;;4797940;29;20091;-57
2022/04/15 11:42:59;;;;;;;13.60;7.25;;;11.40;99.90;;;;;;4799201;30;20043;-57
2022/04/15 11:45:43;;;;;;;9.82;6.90;;;11.40;99.90;;;;;;4782243;30;20047;-56
2022/04/15 11:48:25;;;;;;;14.63;7.43;;;11.40;99.90;;;;;;4798980;30;20031;-57
2022/04/15 11:50:53;;;;;;;11.45;6.88;;;11.40;99.90;;;;;;4794411;29;20054;-57
2022/04/15 11:53:20;;;;;;;13.30;7.03;;;11.40;99.90;;;;;;4790180;30;20091;-57
2022/04/15 11:55:55;;;;;;;11.23;7.20;;;11.40;99.90;;;;;;4769258;30;20063;-56
2022/04/15 11:58:24;;;;;;;12.60;7.00;;;11.40;99.90;;;;;;4779835;30;20083;-58
2022/04/15 12:01:00;;;;;;;14.63;7.80;;;11.10;99.90;;;;;;4780789;30;20047;-58
2022/04/15 12:03:27;;;;;;;11.88;7.72;;;11.90;99.90;;;;;;4780552;30;20315;-57
2022/04/15 12:05:57;;;;;;;10.30;6.50;;;11.70;99.90;;;;;;4780183;30;20512;-57
2022/04/15 12:08:24;;;;;;;10.25;6.65;;;11.80;99.90;;;;;;4779489;30;20059;-56
2022/04/15 12:10:50;;;;;;;12.93;6.72;;;12.00;99.90;;;;;;4780215;30;20086;-57
2022/04/15 12:13:17;;;;;;;11.82;6.50;;;13.60;99.90;;;;;;4780336;30;20044;-57
2022/04/15 12:15:44;;;;;;;16.42;9.27;;;12.20;99.90;;;;;;4793149;30;20082;-57
2022/04/15 12:18:11;;;;;;;10.60;6.75;;;12.10;99.90;;;;;;4797914;30;20066;-57
2022/04/15 12:20:40;;;;;;;11.13;6.80;;;12.00;99.90;;;;;;4797894;30;20321;-57
2022/04/15 12:23:09;;;;;;;10.35;7.15;;;12.10;99.90;;;;;;4797932;30;20047;-57
2022/04/15 12:31:23;;;;;;;14.52;7.45;;;12.00;99.90;;;;;;4782367;30;20055;-57
2022/04/15 12:33:49;;;;;;;12.23;7.47;;;12.00;99.90;;;;;;4798251;30;20081;-57
2022/04/15 12:36:17;;;;;;;10.45;7.40;;;;;;;;;;4797424;30;20360;-57
2022/04/15 12:39:04;;;;;;;11.73;7.32;;;11.70;99.90;;;;;;4797377;30;20112;-57
2022/04/15 12:41:48;;;;;;;12.77;7.28;;;11.60;99.90;;;;;;4797554;30;20356;-57
2022/04/15 12:44:29;;;;;;;10.10;6.70;;;11.60;99.90;;;;;;4781361;30;20112;-57
2022/04/15 12:47:00;;;;;;;11.43;7.15;;;11.70;99.90;;;;;;4798216;29;20074;-57
2022/04/15 12:49:36;;;;;;;11.70;6.50;;;11.80;99.90;;;;;;4796482;30;20260;-57
2022/04/15 12:52:13;;;;;;;13.63;7.10;;;11.60;99.90;;;;;;4797852;29;20046;-57
2022/04/15 12:54:55;;;;;;;12.50;6.80;;;11.40;99.90;;;;;;4797679;29;20063;-57
2022/04/15 12:57:21;;;;;;;11.60;7.45;;;11.40;99.90;;;;;;4797688;29;20039;-57
2022/04/15 12:59:47;;;;;;;15.23;7.43;;;11.40;99.90;;;;;;4797223;29;20313;-59
2022/04/15 13:02:14;;;;;;;11.48;7.25;;;;;;;;;;4796267;30;20047;-60
2022/04/15 13:04:39;;;;;;;12.07;7.40;;;11.30;99.90;;;;;;4797163;29;20131;-60
2022/04/15 13:07:05;;;;;;;11.32;7.53;;;11.20;99.90;;;;;;4797125;30;20332;-60
2022/04/15 13:09:31;;;;;;;12.48;7.15;;;11.00;99.90;;;;;;4797039;29;20269;-59
2022/04/15 13:11:56;;;;;;;11.05;7.22;;;11.10;99.90;;;;;;4811577;29;20035;-60
2022/04/15 13:14:22;;;;;;;11.45;6.93;;;;;;;;;;4797263;29;20090;-60
2022/04/15 13:16:49;;;;;;;17.20;9.00;;;11.30;99.90;;;;;;4797504;30;20055;-60
2022/04/15 13:19:17;;;;;;;13.57;7.72;;;;;;;;;;4781007;30;20059;-60
2022/04/15 13:21:42;;;;;;;10.50;7.40;;;11.20;99.90;;;;;;4795786;29;20043;-60
2022/04/15 13:24:08;;;;;;;12.27;7.53;;;11.10;99.90;;;;;;4796206;30;20049;-59
2022/04/15 13:26:34;;;;;;;15.50;7.38;;;;;;;;;;4797159;30;20110;-60
2022/04/15 13:29:00;;;;;;;17.13;8.45;;;10.60;99.90;;;;;;4797020;30;20047;-60